createdAt,value
2018-07-22T00:01:53.179Z,38.34
2018-07-22T00:04:27.768Z,38.68
2018-07-22T00:06:56.962Z,38.29
2018-07-22T00:09:26.050Z,38.71
2018-07-22T00:11:55.236Z,38.46
2018-07-22T00:14:24.531Z,38.72
2018-07-22T00:16:53.593Z,38.65
2018-07-22T00:19:24.551Z,38.65
2018-07-22T00:21:53.660Z,38.56
2018-07-22T00:24:22.768Z,38.87
2018-07-22T00:26:51.900Z,38.92
2018-07-22T00:29:21.329Z,38.92
2018-07-22T00:31:50.424Z,38.67
2018-07-22T00:34:19.654Z,38.80
2018-07-22T00:36:48.782Z,38.86
2018-07-22T00:39:17.856Z,38.70
2018-07-22T00:41:46.944Z,38.74
2018-07-22T00:44:16.038Z,38.64
2018-07-22T00:46:45.145Z,38.90
2018-07-22T00:49:14.241Z,38.90
2018-07-22T00:51:43.346Z,39.09
2018-07-22T00:54:12.463Z,38.77
2018-07-22T00:56:41.548Z,38.80
2018-07-22T00:59:10.623Z,39.06
2018-07-22T01:01:39.692Z,38.88
2018-07-22T01:04:09.294Z,39.21
2018-07-22T01:06:38.432Z,38.72
2018-07-22T01:09:09.134Z,39.03
2018-07-22T01:11:38.228Z,38.80
2018-07-22T01:14:07.806Z,38.90
2018-07-22T01:16:37.015Z,39.16
2018-07-22T01:19:06.616Z,39.22
2018-07-22T01:21:35.756Z,39.31
2018-07-22T01:24:04.862Z,39.13
2018-07-22T01:26:33.948Z,39.44
2018-07-22T01:29:03.192Z,39.16
2018-07-22T01:31:32.344Z,39.40
2018-07-22T01:34:01.534Z,39.10
2018-07-22T01:36:30.855Z,39.14
2018-07-22T01:38:59.950Z,39.19
2018-07-22T01:41:29.078Z,39.70
2018-07-22T01:43:58.236Z,39.29
2018-07-22T01:46:27.357Z,39.30
2018-07-22T01:48:56.518Z,39.65
2018-07-22T01:51:25.594Z,39.87
2018-07-22T01:53:54.722Z,39.79
2018-07-22T01:56:24.016Z,39.61
2018-07-22T01:58:53.082Z,40.10
2018-07-22T02:01:22.210Z,40.29
2018-07-22T02:03:51.363Z,40.15
2018-07-22T02:06:20.416Z,40.35
2018-07-22T02:08:49.487Z,40.37
2018-07-22T02:11:19.176Z,40.39
2018-07-22T02:13:48.297Z,40.18
2018-07-22T02:16:17.820Z,40.43
2018-07-22T02:18:47.007Z,40.25
2018-07-22T02:21:16.144Z,40.21
2018-07-22T02:23:50.926Z,40.23
2018-07-22T02:26:24.859Z,40.18
2018-07-22T02:28:53.944Z,40.52
2018-07-22T02:31:23.021Z,40.68
2018-07-22T02:33:52.086Z,40.81
2018-07-22T02:36:21.162Z,40.93
2018-07-22T02:38:50.349Z,40.62
2018-07-22T02:41:19.438Z,40.74
2018-07-22T02:43:48.543Z,41.09
2018-07-22T02:46:17.984Z,41.07
2018-07-22T02:48:47.609Z,40.84
2018-07-22T02:51:16.691Z,41.48
2018-07-22T02:53:45.864Z,41.29
2018-07-22T02:56:14.976Z,41.68
2018-07-22T02:58:44.075Z,41.70
2018-07-22T03:01:13.232Z,41.47
2018-07-22T03:03:42.390Z,41.66
2018-07-22T03:06:11.536Z,41.30
2018-07-22T03:08:40.638Z,41.22
2018-07-22T03:11:09.724Z,41.71
2018-07-22T03:13:38.820Z,41.26
2018-07-22T03:16:08.596Z,41.65
2018-07-22T03:18:37.686Z,41.59
2018-07-22T03:21:07.089Z,41.37
2018-07-22T03:23:36.189Z,41.41
2018-07-22T03:26:05.478Z,41.35
2018-07-22T03:28:34.618Z,41.26
2018-07-22T03:31:03.805Z,41.33
2018-07-22T03:33:32.884Z,41.76
2018-07-22T03:36:02.117Z,41.37
2018-07-22T03:38:31.210Z,41.63
2018-07-22T03:41:00.295Z,41.72
2018-07-22T03:43:29.475Z,41.55
2018-07-22T03:45:58.629Z,41.40
2018-07-22T03:48:28.248Z,41.46
2018-07-22T03:50:57.352Z,41.96
2018-07-22T03:53:26.495Z,41.80
2018-07-22T03:55:55.581Z,41.97
2018-07-22T03:58:24.755Z,41.71
2018-07-22T04:00:53.880Z,42.05
2018-07-22T04:03:23.051Z,42.08
2018-07-22T04:05:52.257Z,41.86
2018-07-22T04:08:21.345Z,41.76
2018-07-22T04:10:50.481Z,42.03
2018-07-22T04:13:19.643Z,42.21
2018-07-22T04:15:48.735Z,41.84
2018-07-22T04:18:17.940Z,42.06
2018-07-22T04:20:47.151Z,41.83
2018-07-22T04:23:16.253Z,42.17
2018-07-22T04:25:45.323Z,42.04
2018-07-22T04:28:14.435Z,42.24
2018-07-22T04:30:43.555Z,42.11
2018-07-22T04:33:12.737Z,42.13
2018-07-22T04:35:41.837Z,42.11
2018-07-22T04:38:10.951Z,42.14
2018-07-22T04:40:40.033Z,42.38
2018-07-22T04:43:09.139Z,42.63
2018-07-22T04:45:38.313Z,42.48
2018-07-22T04:48:07.453Z,42.35
2018-07-22T04:50:36.549Z,42.58
2018-07-22T04:53:05.656Z,42.19
2018-07-22T04:55:34.754Z,42.26
2018-07-22T04:58:03.883Z,42.26
2018-07-22T05:00:32.963Z,42.71
2018-07-22T05:03:02.039Z,42.68
2018-07-22T05:05:31.236Z,42.60
2018-07-22T05:08:00.331Z,42.95
2018-07-22T05:10:29.520Z,42.42
2018-07-22T05:12:58.617Z,42.37
2018-07-22T05:15:28.467Z,42.68
2018-07-22T05:17:59.567Z,42.60
2018-07-22T05:20:29.351Z,42.66
2018-07-22T05:22:59.167Z,42.79
2018-07-22T05:25:28.327Z,42.60
2018-07-22T05:27:57.414Z,42.42
2018-07-22T05:30:26.489Z,42.67
2018-07-22T05:32:55.637Z,42.77
2018-07-22T05:35:24.720Z,42.83
2018-07-22T05:37:53.803Z,42.85
2018-07-22T05:40:23.027Z,42.53
2018-07-22T05:42:52.255Z,42.52
2018-07-22T05:45:21.403Z,42.51
2018-07-22T05:47:50.700Z,42.83
2018-07-22T05:50:19.779Z,42.69
2018-07-22T05:52:48.899Z,42.60
2018-07-22T05:55:20.083Z,42.61
2018-07-22T05:57:49.224Z,42.60
2018-07-22T06:00:18.327Z,42.69
2018-07-22T06:02:47.431Z,42.79
2018-07-22T06:05:16.518Z,42.70
2018-07-22T06:07:45.583Z,42.52
2018-07-22T06:10:14.671Z,42.63
2018-07-22T06:12:43.779Z,42.69
2018-07-22T06:15:12.927Z,42.75
2018-07-22T06:17:42.008Z,42.54
2018-07-22T06:20:11.331Z,42.61
2018-07-22T06:22:40.401Z,42.23
2018-07-22T06:25:09.524Z,41.99
2018-07-22T06:27:38.587Z,42.32
2018-07-22T06:30:07.995Z,41.89
2018-07-22T06:32:37.063Z,42.20
2018-07-22T06:35:06.202Z,42.19
2018-07-22T06:37:35.484Z,42.02
2018-07-22T06:40:04.797Z,41.83
2018-07-22T06:42:33.872Z,41.94
2018-07-22T06:45:03.073Z,41.41
2018-07-22T06:47:32.172Z,41.80
2018-07-22T06:50:01.247Z,41.47
2018-07-22T06:52:31.325Z,41.43
2018-07-22T06:55:00.496Z,41.61
2018-07-22T06:57:30.139Z,41.11
2018-07-22T07:00:00.672Z,41.46
2018-07-22T07:02:29.766Z,41.33
2018-07-22T07:04:58.935Z,41.43
2018-07-22T07:07:28.219Z,41.35
2018-07-22T07:09:58.322Z,41.24
2018-07-22T07:12:27.423Z,41.35
2018-07-22T07:14:56.535Z,41.25
2018-07-22T07:17:25.635Z,41.12
2018-07-22T07:19:54.731Z,41.01
2018-07-22T07:22:24.724Z,40.78
2018-07-22T07:24:53.795Z,40.67
2018-07-22T07:27:22.864Z,41.12
2018-07-22T07:29:52.032Z,41.16
2018-07-22T07:32:21.199Z,40.95
2018-07-22T07:34:50.280Z,40.88
2018-07-22T07:37:19.352Z,40.57
2018-07-22T07:39:48.424Z,40.98
2018-07-22T07:42:17.572Z,40.59
2018-07-22T07:44:46.837Z,40.73
2018-07-22T07:47:15.928Z,40.20
2018-07-22T07:49:46.008Z,40.98
2018-07-22T07:52:15.115Z,40.71
2018-07-22T07:54:44.226Z,40.08
2018-07-22T07:57:13.434Z,40.34
2018-07-22T07:59:42.516Z,40.41
2018-07-22T08:02:11.627Z,41.37
2018-07-22T08:04:40.812Z,41.63
2018-07-22T08:07:09.897Z,41.45
2018-07-22T08:09:38.998Z,41.27
2018-07-22T08:12:08.368Z,40.93
2018-07-22T08:14:37.439Z,41.53
2018-07-22T08:17:06.513Z,41.88
2018-07-22T08:19:35.624Z,41.53
2018-07-22T08:22:04.869Z,41.52
2018-07-22T08:24:34.116Z,41.46
2018-07-22T08:27:03.189Z,41.54
2018-07-22T08:29:35.248Z,41.33
2018-07-22T08:32:05.411Z,41.58
2018-07-22T08:34:34.495Z,41.83
2018-07-22T08:37:03.572Z,41.43
2018-07-22T08:39:33.327Z,41.35
2018-07-22T08:42:02.467Z,41.63
2018-07-22T08:44:31.560Z,41.50
2018-07-22T08:47:00.672Z,41.86
2018-07-22T08:49:29.762Z,41.38
2018-07-22T08:51:58.857Z,41.63
2018-07-22T08:54:28.036Z,41.61
2018-07-22T08:56:57.142Z,41.67
2018-07-22T08:59:26.243Z,41.76
2018-07-22T09:01:55.304Z,41.57
2018-07-22T09:04:24.358Z,41.38
2018-07-22T09:06:53.433Z,41.84
2018-07-22T09:09:22.506Z,41.76
2018-07-22T09:11:52.754Z,41.38
2018-07-22T09:14:21.956Z,41.43
2018-07-22T09:16:51.147Z,41.45
2018-07-22T09:19:21.060Z,41.34
2018-07-22T09:21:50.143Z,41.46
2018-07-22T09:24:19.236Z,41.16
2018-07-22T09:26:48.338Z,40.99
2018-07-22T09:29:17.434Z,41.63
2018-07-22T09:31:46.508Z,41.12
2018-07-22T09:34:15.611Z,41.13
2018-07-22T09:36:44.913Z,41.60
2018-07-22T09:39:14.032Z,41.18
2018-07-22T09:41:43.093Z,41.64
2018-07-22T09:44:12.381Z,41.39
2018-07-22T09:46:41.520Z,41.19
2018-07-22T09:49:10.603Z,41.28
2018-07-22T09:51:39.720Z,41.10
2018-07-22T09:54:08.812Z,41.53
2018-07-22T09:56:37.988Z,41.20
2018-07-22T09:59:07.098Z,41.26
2018-07-22T10:01:38.042Z,41.24
2018-07-22T10:04:07.258Z,41.66
2018-07-22T10:06:36.320Z,41.11
2018-07-22T10:09:08.316Z,41.48
2018-07-22T10:11:37.396Z,41.59
2018-07-22T10:14:06.571Z,41.57
2018-07-22T10:16:35.660Z,41.13
2018-07-22T10:19:04.775Z,41.58
2018-07-22T10:21:33.845Z,41.14
2018-07-22T10:24:02.965Z,41.20
2018-07-22T10:26:32.069Z,41.20
2018-07-22T10:29:01.178Z,40.96
2018-07-22T10:31:30.341Z,41.39
2018-07-22T10:33:59.432Z,41.16
2018-07-22T10:36:28.600Z,41.16
2018-07-22T10:38:57.717Z,40.83
2018-07-22T10:41:26.798Z,41.16
2018-07-22T10:43:55.919Z,41.20
2018-07-22T10:46:25.020Z,40.89
2018-07-22T10:48:54.128Z,41.08
2018-07-22T10:51:23.210Z,41.06
2018-07-22T10:53:52.356Z,41.15
2018-07-22T10:56:21.480Z,40.70
2018-07-22T10:58:50.652Z,40.71
2018-07-22T11:01:19.863Z,40.56
2018-07-22T11:03:48.930Z,40.86
2018-07-22T11:06:18.044Z,40.65
2018-07-22T11:08:47.132Z,40.89
2018-07-22T11:11:16.226Z,40.44
2018-07-22T11:13:45.338Z,40.56
2018-07-22T11:16:14.496Z,40.67
2018-07-22T11:18:43.594Z,40.81
2018-07-22T11:21:12.741Z,40.85
2018-07-22T11:23:42.002Z,40.54
2018-07-22T11:26:11.290Z,40.66
2018-07-22T11:28:40.653Z,40.66
2018-07-22T11:31:10.156Z,40.93
2018-07-22T11:33:39.245Z,40.89
2018-07-22T11:36:08.465Z,40.60
2018-07-22T11:38:37.669Z,41.01
2018-07-22T11:41:06.754Z,41.02
2018-07-22T11:43:35.861Z,41.05
2018-07-22T11:46:04.944Z,40.85
2018-07-22T11:48:34.063Z,40.93
2018-07-22T11:51:03.153Z,40.62
2018-07-22T11:53:32.252Z,40.86
2018-07-22T11:56:01.343Z,40.65
2018-07-22T11:58:30.442Z,40.63
2018-07-22T12:00:59.550Z,40.53
2018-07-22T12:03:28.597Z,40.35
2018-07-22T12:05:57.784Z,40.22
2018-07-22T12:08:27.040Z,40.22
2018-07-22T12:10:56.180Z,40.22
2018-07-22T12:13:25.324Z,40.34
2018-07-22T12:15:54.436Z,39.98
2018-07-22T12:18:23.627Z,39.97
2018-07-22T12:20:52.745Z,40.25
2018-07-22T12:23:21.827Z,40.25
2018-07-22T12:25:51.001Z,40.26
2018-07-22T12:28:20.124Z,40.07
2018-07-22T12:30:49.233Z,39.29
2018-07-22T12:33:18.550Z,39.27
2018-07-22T12:35:47.706Z,39.78
2018-07-22T12:38:16.804Z,39.25
2018-07-22T12:40:45.882Z,39.90
2018-07-22T12:43:15.036Z,39.38
2018-07-22T12:45:44.139Z,39.85
2018-07-22T12:48:13.278Z,39.31
2018-07-22T12:50:42.372Z,39.45
2018-07-22T12:53:11.458Z,39.43
2018-07-22T12:55:40.524Z,39.72
2018-07-22T12:58:09.612Z,38.99
2018-07-22T13:00:38.692Z,39.24
2018-07-22T13:03:07.801Z,39.32
2018-07-22T13:05:37.514Z,39.04
2018-07-22T13:08:07.068Z,39.20
2018-07-22T13:10:36.145Z,39.12
2018-07-22T13:13:05.273Z,39.05
2018-07-22T13:15:34.343Z,39.41
2018-07-22T13:18:03.455Z,38.89
2018-07-22T13:20:32.558Z,38.87
2018-07-22T13:23:02.548Z,39.43
2018-07-22T13:25:31.772Z,39.08
2018-07-22T13:28:00.835Z,38.86
2018-07-22T13:30:29.936Z,39.04
2018-07-22T13:32:59.042Z,39.08
2018-07-22T13:35:29.054Z,38.65
2018-07-22T13:37:58.142Z,38.90
2018-07-22T13:40:27.219Z,39.04
2018-07-22T13:42:56.368Z,39.25
2018-07-22T13:45:25.504Z,39.09
2018-07-22T13:47:54.735Z,38.96
2018-07-22T13:50:23.835Z,38.87
2018-07-22T13:52:52.930Z,39.06
2018-07-22T13:55:22.031Z,39.59
2018-07-22T13:57:51.408Z,39.40
2018-07-22T14:00:20.559Z,39.59
2018-07-22T14:02:50.773Z,39.26
2018-07-22T14:05:19.992Z,39.41
2018-07-22T14:07:49.080Z,39.45
2018-07-22T14:10:18.269Z,39.56
2018-07-22T14:12:48.752Z,39.40
2018-07-22T14:15:18.944Z,39.32
2018-07-22T14:17:48.061Z,39.04
2018-07-22T14:20:17.403Z,38.84
2018-07-22T14:22:46.498Z,39.00
2018-07-22T14:25:15.808Z,38.88
2018-07-22T14:27:45.058Z,38.96
2018-07-22T14:30:14.414Z,39.21
2018-07-22T14:32:43.484Z,39.14
2018-07-22T14:35:12.647Z,38.68
2018-07-22T14:37:41.944Z,38.94
2018-07-22T14:40:11.028Z,39.12
2018-07-22T14:42:40.131Z,39.16
2018-07-22T14:45:09.669Z,39.17
2018-07-22T14:47:38.972Z,39.06
2018-07-22T14:50:08.088Z,39.18
2018-07-22T14:52:37.162Z,39.64
2018-07-22T14:55:06.250Z,39.40
2018-07-22T14:57:35.326Z,39.36
2018-07-22T15:00:05.108Z,39.34
2018-07-22T15:02:34.208Z,39.52
2018-07-22T15:05:03.312Z,39.73
2018-07-22T15:07:32.492Z,39.28
2018-07-22T15:10:01.578Z,39.45
2018-07-22T15:12:30.758Z,39.48
2018-07-22T15:14:59.858Z,40.36
2018-07-22T15:17:28.967Z,40.21
2018-07-22T15:19:59.095Z,40.03
2018-07-22T15:22:28.258Z,40.41
2018-07-22T15:24:57.380Z,39.96
2018-07-22T15:27:26.904Z,39.92
2018-07-22T15:29:55.955Z,39.58
2018-07-22T15:32:25.059Z,39.36
2018-07-22T15:34:54.144Z,38.72
2018-07-22T15:37:23.307Z,38.80
2018-07-22T15:39:52.418Z,39.15
2018-07-22T15:42:21.530Z,38.93
2018-07-22T15:44:51.572Z,39.01
2018-07-22T15:47:21.346Z,38.99
2018-07-22T15:49:50.464Z,38.85
2018-07-22T15:52:19.670Z,38.86
2018-07-22T15:54:48.780Z,39.09
2018-07-22T15:57:17.850Z,39.71
2018-07-22T15:59:46.984Z,39.63
2018-07-22T16:02:16.067Z,39.87
2018-07-22T16:04:45.163Z,39.42
2018-07-22T16:07:14.233Z,39.62
2018-07-22T16:09:43.335Z,39.97
2018-07-22T16:12:12.422Z,39.82
2018-07-22T16:14:42.373Z,39.73
2018-07-22T16:17:11.648Z,39.62
2018-07-22T16:19:40.749Z,39.68
2018-07-22T16:22:09.863Z,40.09
2018-07-22T16:24:38.981Z,40.03
2018-07-22T16:27:08.151Z,39.45
2018-07-22T16:29:37.212Z,39.79
2018-07-22T16:32:06.318Z,39.54
2018-07-22T16:34:35.423Z,39.84
2018-07-22T16:37:04.530Z,39.89
2018-07-22T16:39:34.186Z,39.88
2018-07-22T16:42:03.330Z,40.39
2018-07-22T16:44:32.607Z,40.42
2018-07-22T16:47:01.776Z,40.53
2018-07-22T16:49:30.897Z,40.56
2018-07-22T16:51:59.979Z,40.44
2018-07-22T16:54:29.107Z,39.77
2018-07-22T16:56:58.202Z,40.15
2018-07-22T16:59:27.299Z,39.73
2018-07-22T17:01:56.435Z,40.14
2018-07-22T17:04:25.508Z,40.10
2018-07-22T17:06:54.575Z,40.21
2018-07-22T17:09:23.651Z,40.13
2018-07-22T17:11:52.739Z,40.28
2018-07-22T17:14:21.853Z,40.28
2018-07-22T17:16:50.956Z,39.90
2018-07-22T17:19:20.407Z,40.07
2018-07-22T17:21:49.570Z,40.04
2018-07-22T17:24:18.799Z,40.40
2018-07-22T17:26:48.043Z,40.38
2018-07-22T17:29:17.270Z,40.76
2018-07-22T17:31:46.367Z,40.54
2018-07-22T17:34:15.459Z,40.43
2018-07-22T17:36:44.581Z,40.50
2018-07-22T17:39:13.768Z,40.44
2018-07-22T17:41:42.870Z,40.34
2018-07-22T17:44:12.106Z,40.05
2018-07-22T17:46:41.273Z,39.89
2018-07-22T17:49:10.339Z,39.94
2018-07-22T17:51:39.451Z,40.11
2018-07-22T17:54:08.552Z,39.71
2018-07-22T17:56:37.850Z,39.53
2018-07-22T17:59:06.914Z,39.68
2018-07-22T18:01:36.204Z,39.90
2018-07-22T18:04:05.305Z,39.81
2018-07-22T18:06:34.385Z,39.66
2018-07-22T18:09:03.720Z,39.17
2018-07-22T18:11:32.799Z,39.30
2018-07-22T18:14:01.917Z,39.25
2018-07-22T18:16:31.983Z,39.24
2018-07-22T18:19:01.100Z,39.12
2018-07-22T18:21:30.237Z,39.18
2018-07-22T18:23:59.339Z,39.55
2018-07-22T18:26:28.458Z,39.50
2018-07-22T18:28:57.828Z,39.34
2018-07-22T18:31:26.989Z,38.93
2018-07-22T18:33:56.080Z,39.29
2018-07-22T18:36:25.175Z,38.78
2018-07-22T18:38:54.329Z,38.98
2018-07-22T18:41:23.431Z,38.92
2018-07-22T18:43:53.021Z,38.91
2018-07-22T18:46:22.136Z,39.04
2018-07-22T18:48:51.448Z,38.83
2018-07-22T18:51:20.655Z,39.08
2018-07-22T18:53:51.249Z,39.06
2018-07-22T18:56:20.857Z,38.81
2018-07-22T18:58:50.456Z,39.12
2018-07-22T19:01:19.924Z,38.66
2018-07-22T19:03:49.431Z,38.65
2018-07-22T19:06:18.981Z,38.90
2018-07-22T19:08:48.376Z,38.61
2018-07-22T19:11:17.994Z,38.75
2018-07-22T19:13:47.394Z,38.73
2018-07-22T19:16:17.001Z,38.93
2018-07-22T19:18:46.773Z,38.66
2018-07-22T19:21:16.320Z,38.60
2018-07-22T19:23:46.132Z,39.19
2018-07-22T19:26:15.637Z,38.61
2018-07-22T19:28:45.144Z,39.09
2018-07-22T19:31:15.693Z,38.92
2018-07-22T19:33:45.178Z,38.61
2018-07-22T19:36:14.684Z,38.96
2018-07-22T19:38:44.290Z,38.59
2018-07-22T19:41:13.795Z,38.97
2018-07-22T19:43:43.300Z,38.80
2018-07-22T19:46:12.761Z,38.66
2018-07-22T19:48:42.620Z,38.85
2018-07-22T19:51:12.227Z,38.95
2018-07-22T19:53:41.853Z,39.37
2018-07-22T19:56:11.649Z,39.32
2018-07-22T19:58:41.152Z,39.09
2018-07-22T20:01:10.752Z,39.02
2018-07-22T20:03:40.225Z,39.25
2018-07-22T20:06:09.977Z,39.28
2018-07-22T20:08:39.538Z,39.43
2018-07-22T20:11:08.987Z,39.42
2018-07-22T20:13:38.598Z,39.52
2018-07-22T20:16:08.103Z,39.65
2018-07-22T20:18:37.603Z,39.09
2018-07-22T20:21:07.284Z,39.28
2018-07-22T20:23:36.716Z,39.52
2018-07-22T20:26:06.279Z,39.33
2018-07-22T20:28:35.832Z,39.57
2018-07-22T20:31:04.940Z,39.67
2018-07-22T20:33:34.435Z,39.27
2018-07-22T20:36:03.622Z,39.28
2018-07-22T20:38:33.208Z,39.57
2018-07-22T20:41:02.742Z,39.70
2018-07-22T20:43:32.031Z,39.37
2018-07-22T20:46:01.140Z,39.45
2018-07-22T20:48:30.197Z,39.40
2018-07-22T20:50:59.593Z,39.71
2018-07-22T20:53:28.918Z,39.76
2018-07-22T20:55:58.009Z,39.29
2018-07-22T20:58:27.631Z,39.82
2018-07-22T21:00:56.995Z,39.74
2018-07-22T21:03:26.079Z,39.48
2018-07-22T21:05:55.155Z,39.37
2018-07-22T21:08:24.320Z,39.42
2018-07-22T21:10:53.426Z,39.40
2018-07-22T21:13:25.840Z,39.62
2018-07-22T21:15:55.390Z,39.52
2018-07-22T21:18:24.651Z,39.68
2018-07-22T21:20:53.819Z,40.18
2018-07-22T21:23:23.111Z,40.29
2018-07-22T21:25:52.176Z,40.31
2018-07-22T21:28:21.287Z,39.79
2018-07-22T21:30:50.392Z,39.99
2018-07-22T21:33:20.186Z,39.91
2018-07-22T21:35:49.801Z,39.25
2018-07-22T21:38:18.906Z,39.86
2018-07-22T21:40:48.094Z,39.35
2018-07-22T21:43:17.199Z,39.88
2018-07-22T21:45:46.291Z,39.68
2018-07-22T21:48:15.527Z,40.01
2018-07-22T21:50:44.698Z,40.08
2018-07-22T21:53:13.888Z,39.82
2018-07-22T21:55:43.067Z,40.11
2018-07-22T21:58:12.372Z,39.83
2018-07-22T22:00:44.360Z,39.76
2018-07-22T22:03:13.539Z,39.72
2018-07-22T22:05:42.881Z,40.12
2018-07-22T22:08:11.938Z,39.78
2018-07-22T22:10:41.016Z,39.79
2018-07-22T22:13:10.739Z,39.52
2018-07-22T22:15:39.845Z,39.59
2018-07-22T22:18:08.919Z,39.71
2018-07-22T22:20:38.023Z,39.87
2018-07-22T22:23:07.417Z,39.80
2018-07-22T22:25:36.538Z,39.56
2018-07-22T22:28:05.735Z,39.82
2018-07-22T22:30:34.915Z,39.51
2018-07-22T22:33:04.005Z,39.58
2018-07-22T22:35:33.109Z,39.09
2018-07-22T22:38:02.181Z,39.24
2018-07-22T22:40:31.300Z,39.03
2018-07-22T22:43:00.408Z,38.95
2018-07-22T22:45:29.485Z,39.25
2018-07-22T22:47:58.632Z,39.08
2018-07-22T22:50:27.718Z,39.29
2018-07-22T22:52:56.873Z,39.04
2018-07-22T22:55:25.978Z,39.02
2018-07-22T22:58:06.458Z,39.16
2018-07-22T23:00:35.638Z,38.95
2018-07-22T23:03:04.832Z,38.76
2018-07-22T23:05:33.904Z,38.46
2018-07-22T23:08:02.975Z,38.86
2018-07-22T23:10:32.050Z,38.46
2018-07-22T23:13:01.141Z,38.89
2018-07-22T23:15:30.273Z,38.50
2018-07-22T23:17:59.333Z,38.85
2018-07-22T23:20:31.490Z,38.52
2018-07-22T23:23:00.571Z,38.59
2018-07-22T23:25:29.658Z,38.74
2018-07-22T23:27:58.727Z,38.86
2018-07-22T23:30:27.823Z,38.66
2018-07-22T23:32:57.659Z,39.17
2018-07-22T23:35:26.752Z,39.22
2018-07-22T23:37:55.826Z,39.23
2018-07-22T23:40:24.891Z,38.95
2018-07-22T23:42:53.976Z,39.38
2018-07-22T23:45:23.067Z,39.40
2018-07-22T23:47:55.175Z,39.20
2018-07-22T23:50:24.342Z,39.38
2018-07-22T23:52:53.583Z,39.12
2018-07-22T23:55:23.541Z,39.06
2018-07-22T23:57:52.663Z,39.07
